Merrihew Airport


Codes: 0NE0/
Name: Merrihew Airport
City: Ashby
Country: United States
Elevation: 3815 ft.

Photos at Merrihew Airport


   Photos courtesy of SpottingLog. You can add your own sightings and photos by signing up for a free trial today.



No photos found.

Weather at Merrihew Airport


Time (UTC)DescriptionTempratureWindCloud coverageVisibilityPressureHumidity
16-Jun-2024 09:00Clear Sky19°C11 mph, W0%10000m1003hPa53%
16-Jun-2024 12:00Clear Sky19°C13 mph, N0%10000m1004hPa56%
16-Jun-2024 15:00Clear Sky19°C18 mph, NE9%10000m1006hPa57%
16-Jun-2024 18:00Few Clouds23°C13 mph, NE18%10000m1006hPa48%
16-Jun-2024 21:00Scattered Clouds26°C11 mph, E43%10000m1005hPa44%
17-Jun-2024 00:00Few Clouds25°C16 mph, E24%10000m1002hPa49%
17-Jun-2024 03:00Light Rain20°C20 mph, NE63%10000m1003hPa78%
17-Jun-2024 06:00Scattered Clouds17°C20 mph, E50%10000m1002hPa87%
17-Jun-2024 09:00Light Rain17°C18 mph, N71%0m1002hPa96%
17-Jun-2024 12:00Light Rain17°C13 mph, NE89%2772m1001hPa94%
17-Jun-2024 15:00Overcast Clouds16°C11 mph, N100%0m1001hPa96%
17-Jun-2024 18:00Overcast Clouds19°C7 mph, NE100%10000m1000hPa87%
17-Jun-2024 21:00Few Clouds28°C7 mph, S16%10000m997hPa46%
18-Jun-2024 00:00Clear Sky30°C11 mph, SE9%10000m993hPa38%
18-Jun-2024 03:00Clear Sky22°C13 mph, E0%10000m992hPa53%
18-Jun-2024 06:00Clear Sky27°C25 mph, S2%10000m990hPa38%
18-Jun-2024 09:00Clear Sky23°C18 mph, SW0%10000m993hPa22%
18-Jun-2024 12:00Few Clouds15°C22 mph, NW12%10000m1001hPa83%
18-Jun-2024 15:00Overcast Clouds15°C18 mph, N99%10000m1004hPa78%
18-Jun-2024 18:00Overcast Clouds20°C18 mph, NW93%10000m1006hPa53%
18-Jun-2024 21:00Scattered Clouds20°C16 mph, NW50%10000m1008hPa44%
19-Jun-2024 00:00Scattered Clouds19°C25 mph, NW25%10000m1009hPa40%
19-Jun-2024 03:00Clear Sky15°C18 mph, NE0%10000m1016hPa63%
19-Jun-2024 06:00Clear Sky11°C13 mph, NE10%10000m1019hPa65%
19-Jun-2024 09:00Overcast Clouds11°C13 mph, NE89%10000m1021hPa72%
19-Jun-2024 12:00Overcast Clouds10°C11 mph, NE91%10000m1022hPa71%
19-Jun-2024 15:00Scattered Clouds12°C11 mph, NE28%10000m1023hPa61%
19-Jun-2024 18:00Broken Clouds13°C11 mph, E66%10000m1023hPa59%
19-Jun-2024 21:00Overcast Clouds15°C13 mph, E100%10000m1021hPa59%
20-Jun-2024 00:00Light Rain12°C13 mph, E100%10000m1021hPa73%
20-Jun-2024 03:00Light Rain11°C9 mph, E100%10000m1023hPa93%
20-Jun-2024 06:00Light Rain12°C7 mph, N100%0m1023hPa97%
20-Jun-2024 09:00Overcast Clouds12°C4 mph, N100%3154m1022hPa97%
20-Jun-2024 12:00Light Rain13°C4 mph, S100%358m1022hPa98%
20-Jun-2024 15:00Light Rain15°C9 mph, S100%10000m1022hPa92%
20-Jun-2024 18:00Light Rain18°C16 mph, SE98%10000m1020hPa82%
20-Jun-2024 21:00Overcast Clouds23°C20 mph, SE98%10000m1016hPa68%
21-Jun-2024 00:00Broken Clouds25°C22 mph, SE60%10000m1013hPa57%
21-Jun-2024 03:00Moderate Rain16°C11 mph, SE99%7288m1018hPa87%
21-Jun-2024 06:00Light Rain18°C25 mph, S99%10000m1017hPa89%